Terminal Aerodrome Forecast
Issued by NWS

Home | Current Version | Previous Version | Text Only | Print | Product List | Glossary On
Versions: 1 2 3 4 5 6 7 8 9 10 11 12 13 14 15 16 17 18 19 20 21 22 23 24 25 26
544
FTAK31 PANC 171145
TAFADQ
TAF
PADQ 171145Z 1712/1812 29005KT P6SM VCSH SCT025 BKN035
      TEMPO 1712/1715 -SHSN BKN025 OVC035
     FM172100 30010KT P6SM SCT035 BKN060
     FM180200 30012G18KT P6SM SCT060=

USA.gov is the U.S. government's official web portal to all federal, state and local government web resources and services.